Time,TemperatureF,DewpointF,PressureIn,WindDirection,WindDirectionDegrees,WindSpeedMPH,WindSpeedGustMPH,Humidity,HourlyPrecipIn,Conditions,Clouds,dailyrainin,SoftwareType,DateUTC
2013-07-11 00:02:00,75.0,69.0,29.88,SW,232,0.0,0.0,83,0.00,,,0.03,,2013-07-11 04:02:00,
2013-07-11 00:32:00,74.0,69.0,29.88,SW,232,0.0,0.0,85,0.00,,,0.03,,2013-07-11 04:32:00,
2013-07-11 00:42:00,73.0,69.0,29.88,SW,232,0.0,0.0,87,0.00,,,0.03,,2013-07-11 04:42:00,
2013-07-11 00:53:00,73.0,69.0,29.87,SW,232,0.0,0.0,88,0.00,,,0.03,,2013-07-11 04:53:00,
2013-07-11 01:02:00,73.0,69.0,29.87,SW,232,0.0,0.0,87,0.00,,,0.03,,2013-07-11 05:02:00,
2013-07-11 01:22:00,73.0,69.0,29.87,WSW,250,0.0,0.0,87,0.00,,,0.03,,2013-07-11 05:22:00,
2013-07-11 01:32:00,73.0,69.0,29.87,WSW,254,0.0,0.0,86,0.00,,,0.03,,2013-07-11 05:32:00,
2013-07-11 01:43:00,73.0,68.0,29.87,WSW,254,0.0,0.0,85,0.00,,,0.03,,2013-07-11 05:43:00,
2013-07-11 01:52:00,73.0,69.0,29.88,WSW,254,0.0,0.0,86,0.00,,,0.03,,2013-07-11 05:52:00,
2013-07-11 02:01:00,72.0,68.0,29.88,WSW,254,0.0,0.0,86,0.00,,,0.03,,2013-07-11 06:01:00,
2013-07-11 02:12:00,72.0,68.0,29.88,WSW,254,0.0,0.0,86,0.00,,,0.03,,2013-07-11 06:12:00,
2013-07-11 02:22:00,72.0,68.0,29.88,WSW,254,0.0,0.0,86,0.00,,,0.03,,2013-07-11 06:22:00,
2013-07-11 02:32:00,72.0,68.0,29.88,WSW,254,0.0,0.0,87,0.00,,,0.03,,2013-07-11 06:32:00,
2013-07-11 02:43:00,71.0,67.0,29.89,WSW,254,0.0,0.0,87,0.00,,,0.03,,2013-07-11 06:43:00,
2013-07-11 02:52:00,71.0,67.0,29.88,WSW,254,0.0,0.0,86,0.00,,,0.03,,2013-07-11 06:52:00,
2013-07-11 03:02:00,71.0,67.0,29.88,WSW,254,0.0,0.0,87,0.00,,,0.03,,2013-07-11 07:02:00,
2013-07-11 03:22:00,71.0,67.0,29.88,WSW,254,0.0,0.0,87,0.00,,,0.03,,2013-07-11 07:22:00,
2013-07-11 03:32:00,72.0,68.0,29.88,WSW,254,0.0,0.0,87,0.00,,,0.03,,2013-07-11 07:32:00,
2013-07-11 03:45:00,72.0,68.0,29.88,WSW,254,0.0,0.0,88,0.00,,,0.03,,2013-07-11 07:45:00,
2013-07-11 03:53:00,72.0,68.0,29.88,WSW,254,0.0,0.0,88,0.00,,,0.03,,2013-07-11 07:53:00,
2013-07-11 04:02:00,72.0,68.0,29.88,WSW,254,0.0,0.0,88,0.00,,,0.03,,2013-07-11 08:02:00,
2013-07-11 04:22:00,72.0,69.0,29.88,WSW,254,0.0,0.0,89,0.00,,,0.03,,2013-07-11 08:22:00,
2013-07-11 04:34:00,72.0,69.0,29.88,WSW,254,0.0,0.0,90,0.00,,,0.03,,2013-07-11 08:34:00,
2013-07-11 04:43:00,71.0,68.0,29.88,WSW,254,0.0,0.0,90,0.00,,,0.03,,2013-07-11 08:43:00,
2013-07-11 04:53:00,71.0,68.0,29.88,WSW,254,0.0,0.0,90,0.00,,,0.03,,2013-07-11 08:53:00,
2013-07-11 05:03:00,71.0,68.0,29.88,WSW,254,0.0,0.0,91,0.00,,,0.03,,2013-07-11 09:03:00,
2013-07-11 05:33:00,71.0,67.0,29.89,West,272,0.0,1.0,87,0.00,,,0.03,,2013-07-11 09:33:00,
2013-07-11 05:43:00,71.0,67.0,29.89,West,272,0.0,0.0,87,0.00,,,0.03,,2013-07-11 09:43:00,
2013-07-11 05:53:00,71.0,67.0,29.89,West,272,0.0,0.0,87,0.00,,,0.03,,2013-07-11 09:53:00,
2013-07-11 06:01:00,71.0,67.0,29.89,West,272,0.0,0.0,87,0.00,,,0.03,,2013-07-11 10:01:00,
2013-07-11 06:43:00,70.0,67.0,29.91,NNW,340,0.0,0.0,89,0.00,,,0.03,,2013-07-11 10:43:00,
2013-07-11 06:52:00,70.0,67.0,29.91,NNW,340,0.0,0.0,89,0.00,,,0.03,,2013-07-11 10:52:00,
2013-07-11 07:02:00,70.0,66.0,29.92,West,272,0.0,2.0,88,0.00,,,0.03,,2013-07-11 11:02:00,
2013-07-11 07:22:00,71.0,67.0,29.93,West,272,0.0,3.0,86,0.00,,,0.03,,2013-07-11 11:22:00,
2013-07-11 07:43:00,71.0,67.0,29.93,West,265,0.0,0.0,87,0.00,,,0.03,,2013-07-11 11:43:00,
2013-07-11 07:53:00,71.0,67.0,29.94,West,265,0.0,0.0,87,0.00,,,0.03,,2013-07-11 11:53:00,
2013-07-11 08:01:00,72.0,68.0,29.94,West,265,0.0,0.0,87,0.00,,,0.03,,2013-07-11 12:01:00,
2013-07-11 08:12:00,72.0,68.0,29.94,West,265,0.0,0.0,87,0.00,,,0.03,,2013-07-11 12:12:00,
2013-07-11 08:22:00,72.0,67.0,29.94,NNE,18,0.0,1.0,84,0.00,,,0.03,,2013-07-11 12:22:00,
2013-07-11 08:33:00,72.0,67.0,29.95,NNE,18,0.0,1.0,83,0.00,,,0.03,,2013-07-11 12:33:00,
2013-07-11 08:43:00,73.0,67.0,29.95,North,9,0.0,2.0,81,0.00,,,0.03,,2013-07-11 12:43:00,
2013-07-11 08:55:00,73.0,66.0,29.95,NE,50,0.0,1.0,78,0.00,,,0.03,,2013-07-11 12:55:00,
2013-07-11 09:02:00,74.0,67.0,29.95,North,355,0.0,2.0,79,0.00,,,0.03,,2013-07-11 13:02:00,
2013-07-11 09:34:00,74.0,66.0,29.95,NNW,342,2.0,5.0,75,0.00,,,0.03,,2013-07-11 13:34:00,
2013-07-11 10:05:00,75.0,67.0,29.95,NNE,17,3.0,9.0,75,0.00,,,0.03,,2013-07-11 14:05:00,
2013-07-11 10:35:00,77.0,69.0,29.95,NNE,17,0.0,7.0,76,0.00,,,0.03,,2013-07-11 14:35:00,
2013-07-11 10:54:00,79.0,69.0,29.95,NW,321,2.0,8.0,72,0.00,,,0.03,,2013-07-11 14:54:00,
2013-07-11 11:06:00,79.0,69.0,29.95,North,5,1.0,7.0,71,0.00,,,0.03,,2013-07-11 15:06:00,
2013-07-11 11:14:00,79.0,68.0,29.95,North,360,3.0,8.0,70,0.00,,,0.03,,2013-07-11 15:14:00,
2013-07-11 12:35:00,80.0,68.0,29.95,NE,51,2.0,5.0,67,0.00,,,0.01,,2013-07-11 16:35:00,
2013-07-11 12:48:00,80.0,69.0,29.95,North,355,1.0,4.0,69,0.00,,,0.01,,2013-07-11 16:48:00,
2013-07-11 12:55:00,81.0,69.0,29.95,NNW,345,1.0,6.0,68,0.00,,,0.01,,2013-07-11 16:55:00,
2013-07-11 13:03:00,81.0,69.0,29.95,NE,36,0.0,4.0,67,0.00,,,0.01,,2013-07-11 17:03:00,
2013-07-11 13:16:00,80.0,68.0,29.95,North,360,1.0,3.0,68,0.00,,,0.01,,2013-07-11 17:16:00,
2013-07-11 13:53:00,82.0,69.0,29.94,NNW,342,1.0,8.0,64,0.00,,,0.01,,2013-07-11 17:53:00,
2013-07-11 14:05:00,82.0,69.0,29.93,NNW,327,0.0,5.0,66,0.00,,,0.01,,2013-07-11 18:05:00,
2013-07-11 14:35:00,82.0,69.0,29.93,West,263,4.0,6.0,65,0.00,,,0.00,,2013-07-11 18:35:00,
2013-07-11 14:54:00,83.0,70.0,29.93,NNE,13,0.0,5.0,64,0.00,,,0.00,,2013-07-11 18:54:00,
2013-07-11 15:05:00,83.0,69.0,29.93,WSW,254,1.0,9.0,62,0.00,,,0.00,,2013-07-11 19:05:00,
2013-07-11 15:39:00,83.0,70.0,29.92,NNE,17,1.0,6.0,65,0.00,,,0.00,,2013-07-11 19:39:00,
2013-07-11 15:45:00,83.0,67.0,29.92,NNE,27,4.0,9.0,58,0.00,,,0.00,,2013-07-11 19:45:00,
2013-07-11 16:07:00,84.0,68.0,29.91,NE,54,1.0,7.0,59,0.00,,,0.00,,2013-07-11 20:07:00,
2013-07-11 16:13:00,84.0,68.0,29.91,North,5,1.0,7.0,59,0.00,,,0.00,,2013-07-11 20:13:00,
2013-07-11 16:39:00,83.0,66.0,29.91,North,5,2.0,5.0,57,0.00,,,0.00,,2013-07-11 20:39:00,
2013-07-11 16:54:00,83.0,68.0,29.91,North,11,0.0,6.0,60,0.00,,,0.00,,2013-07-11 20:54:00,
2013-07-11 17:05:00,82.0,67.0,29.91,NE,48,1.0,3.0,60,0.00,,,0.00,,2013-07-11 21:05:00,
2013-07-11 17:15:00,82.0,68.0,29.91,NE,36,0.0,3.0,63,0.00,,,0.00,,2013-07-11 21:15:00,
2013-07-11 17:45:00,81.0,68.0,29.91,North,10,0.0,1.0,65,0.00,,,0.00,,2013-07-11 21:45:00,
2013-07-11 17:56:00,81.0,68.0,29.91,North,10,0.0,1.0,65,0.00,,,0.00,,2013-07-11 21:56:00,
2013-07-11 18:35:00,80.0,68.0,29.91,NNE,31,0.0,1.0,67,0.00,,,0.00,,2013-07-11 22:35:00,
2013-07-11 18:48:00,80.0,69.0,29.91,North,360,0.0,1.0,69,0.00,,,0.00,,2013-07-11 22:48:00,
2013-07-11 18:54:00,80.0,68.0,29.91,North,360,0.0,2.0,67,0.00,,,0.00,,2013-07-11 22:54:00,
2013-07-11 19:06:00,80.0,68.0,29.91,North,360,0.0,1.0,68,0.00,,,0.00,,2013-07-11 23:06:00,
2013-07-11 19:26:00,80.0,69.0,29.92,North,360,0.0,0.0,70,0.00,,,0.00,,2013-07-11 23:26:00,
2013-07-11 19:47:00,80.0,71.0,29.93,North,360,0.0,0.0,74,0.00,,,0.00,,2013-07-11 23:47:00,
2013-07-11 19:56:00,79.0,70.0,29.93,North,360,0.0,0.0,74,0.00,,,0.00,,2013-07-11 23:56:00,
2013-07-11 20:05:00,79.0,71.0,29.93,North,360,0.0,0.0,76,0.00,,,0.00,,2013-07-12 00:05:00,
2013-07-11 20:26:00,78.0,71.0,29.93,North,360,0.0,0.0,79,0.00,,,0.00,,2013-07-12 00:26:00,
2013-07-11 20:37:00,77.0,71.0,29.92,North,360,0.0,0.0,81,0.00,,,0.00,,2013-07-12 00:37:00,
2013-07-11 21:05:00,76.0,69.0,29.92,North,360,0.0,0.0,80,0.00,,,0.00,,2013-07-12 01:05:00,
2013-07-11 21:14:00,76.0,69.0,29.92,NE,51,0.0,1.0,79,0.00,,,0.00,,2013-07-12 01:14:00,
2013-07-11 21:37:00,76.0,69.0,29.93,NE,49,0.0,1.0,78,0.00,,,0.00,,2013-07-12 01:37:00,
2013-07-11 21:55:00,76.0,68.0,29.93,NNE,32,0.0,1.0,77,0.00,,,0.00,,2013-07-12 01:55:00,
2013-07-11 22:17:00,76.0,68.0,29.93,NNE,26,0.0,2.0,76,0.00,,,0.00,,2013-07-12 02:17:00,
2013-07-11 22:45:00,75.0,66.0,29.94,North,360,0.0,2.0,73,0.00,,,0.00,,2013-07-12 02:45:00,
2013-07-11 22:54:00,75.0,66.0,29.94,North,11,0.0,1.0,74,0.00,,,0.00,,2013-07-12 02:54:00,
2013-07-11 23:04:00,75.0,66.0,29.94,NNE,19,0.0,1.0,73,0.00,,,0.00,,2013-07-12 03:04:00,
2013-07-11 23:37:00,74.0,65.0,29.93,North,355,1.0,2.0,74,0.00,,,0.00,,2013-07-12 03:37:00,
2013-07-11 23:46:00,74.0,65.0,29.93,North,5,0.0,1.0,74,0.00,,,0.00,,2013-07-12 03:46:00,
2013-07-11 23:54:00,74.0,65.0,29.93,North,5,0.0,3.0,73,0.00,,,0.00,,2013-07-12 03:54:00,